sensor_id;sensor_type;location;lat;lon;timestamp;pressure;altitude;pressure_sealevel;temperature
80422;BMP280;69763;50.182;9.144;2023-07-20T00:01:30;99811.19;;;17.16
80422;BMP280;69763;50.182;9.144;2023-07-20T00:03:55;99808.53;;;17.08
80422;BMP280;69763;50.182;9.144;2023-07-20T00:06:21;99810.09;;;17.02
80422;BMP280;69763;50.182;9.144;2023-07-20T00:08:46;99815.22;;;16.97
80422;BMP280;69763;50.182;9.144;2023-07-20T00:11:13;99817.09;;;16.95
80422;BMP280;69763;50.182;9.144;2023-07-20T00:13:39;99807.28;;;16.92
80422;BMP280;69763;50.182;9.144;2023-07-20T00:16:04;99811.72;;;16.87
80422;BMP280;69763;50.182;9.144;2023-07-20T00:18:30;99816.28;;;16.85
80422;BMP280;69763;50.182;9.144;2023-07-20T00:20:55;99815.22;;;16.80
80422;BMP280;69763;50.182;9.144;2023-07-20T00:23:20;99819.97;;;16.80
80422;BMP280;69763;50.182;9.144;2023-07-20T00:25:46;99824.19;;;16.81
80422;BMP280;69763;50.182;9.144;2023-07-20T00:28:13;99818.88;;;16.83
80422;BMP280;69763;50.182;9.144;2023-07-20T00:30:39;99823.78;;;16.84
80422;BMP280;69763;50.182;9.144;2023-07-20T00:33:06;99817.00;;;16.85
80422;BMP280;69763;50.182;9.144;2023-07-20T00:35:31;99821.94;;;16.87
80422;BMP280;69763;50.182;9.144;2023-07-20T00:37:57;99812.25;;;16.86
80422;BMP280;69763;50.182;9.144;2023-07-20T00:40:22;99815.72;;;16.86
80422;BMP280;69763;50.182;9.144;2023-07-20T00:42:47;99814.28;;;16.85
80422;BMP280;69763;50.182;9.144;2023-07-20T00:45:14;99825.06;;;16.83
80422;BMP280;69763;50.182;9.144;2023-07-20T00:47:40;99832.25;;;16.79
80422;BMP280;69763;50.182;9.144;2023-07-20T00:50:06;99821.53;;;16.73
80422;BMP280;69763;50.182;9.144;2023-07-20T00:52:32;99824.34;;;16.66
80422;BMP280;69763;50.182;9.144;2023-07-20T00:54:58;99814.75;;;16.57
80422;BMP280;69763;50.182;9.144;2023-07-20T00:57:24;99813.38;;;16.48
80422;BMP280;69763;50.182;9.144;2023-07-20T00:59:49;99822.06;;;16.37
80422;BMP280;69763;50.182;9.144;2023-07-20T01:02:16;99810.13;;;16.25
80422;BMP280;69763;50.182;9.144;2023-07-20T01:04:42;99816.22;;;16.16
80422;BMP280;69763;50.182;9.144;2023-07-20T01:07:12;99810.66;;;16.06
80422;BMP280;69763;50.182;9.144;2023-07-20T01:09:42;99816.34;;;16.01
80422;BMP280;69763;50.182;9.144;2023-07-20T01:12:13;99806.19;;;15.94
80422;BMP280;69763;50.182;9.144;2023-07-20T01:14:40;99814.22;;;15.92
80422;BMP280;69763;50.182;9.144;2023-07-20T01:17:05;99815.84;;;15.95
80422;BMP280;69763;50.182;9.144;2023-07-20T01:19:32;99818.34;;;16.00
80422;BMP280;69763;50.182;9.144;2023-07-20T01:22:02;99813.94;;;16.05
80422;BMP280;69763;50.182;9.144;2023-07-20T01:24:51;99807.53;;;16.10
80422;BMP280;69763;50.182;9.144;2023-07-20T01:27:44;99814.94;;;16.17
80422;BMP280;69763;50.182;9.144;2023-07-20T01:33:15;99819.59;;;16.24
80422;BMP280;69763;50.182;9.144;2023-07-20T01:35:42;99818.72;;;16.22
80422;BMP280;69763;50.182;9.144;2023-07-20T01:38:08;99818.41;;;16.18
80422;BMP280;69763;50.182;9.144;2023-07-20T01:40:35;99817.75;;;16.09
80422;BMP280;69763;50.182;9.144;2023-07-20T01:43:01;99817.63;;;16.00
80422;BMP280;69763;50.182;9.144;2023-07-20T01:45:27;99821.53;;;15.89
80422;BMP280;69763;50.182;9.144;2023-07-20T01:47:52;99825.97;;;15.77
80422;BMP280;69763;50.182;9.144;2023-07-20T01:50:19;99828.56;;;15.68
80422;BMP280;69763;50.182;9.144;2023-07-20T01:52:45;99824.66;;;15.61
80422;BMP280;69763;50.182;9.144;2023-07-20T01:55:10;99830.31;;;15.55
80422;BMP280;69763;50.182;9.144;2023-07-20T01:57:36;99826.31;;;15.49
80422;BMP280;69763;50.182;9.144;2023-07-20T02:00:01;99828.38;;;15.41
80422;BMP280;69763;50.182;9.144;2023-07-20T02:02:27;99824.72;;;15.38
80422;BMP280;69763;50.182;9.144;2023-07-20T02:04:52;99829.31;;;15.36
80422;BMP280;69763;50.182;9.144;2023-07-20T02:07:19;99832.41;;;15.32
80422;BMP280;69763;50.182;9.144;2023-07-20T02:09:44;99820.97;;;15.26
80422;BMP280;69763;50.182;9.144;2023-07-20T02:12:10;99826.97;;;15.17
80422;BMP280;69763;50.182;9.144;2023-07-20T02:14:35;99820.84;;;15.09
80422;BMP280;69763;50.182;9.144;2023-07-20T02:17:01;99823.81;;;14.96
80422;BMP280;69763;50.182;9.144;2023-07-20T02:19:29;99828.91;;;14.84
80422;BMP280;69763;50.182;9.144;2023-07-20T02:21:54;99823.09;;;14.72
80422;BMP280;69763;50.182;9.144;2023-07-20T02:24:21;99824.59;;;14.58
80422;BMP280;69763;50.182;9.144;2023-07-20T02:26:47;99833.16;;;14.47
80422;BMP280;69763;50.182;9.144;2023-07-20T02:29:12;99833.69;;;14.38
80422;BMP280;69763;50.182;9.144;2023-07-20T02:31:37;99833.50;;;14.28
80422;BMP280;69763;50.182;9.144;2023-07-20T02:34:03;99829.31;;;14.20
80422;BMP280;69763;50.182;9.144;2023-07-20T02:36:28;99829.66;;;14.09
80422;BMP280;69763;50.182;9.144;2023-07-20T02:38:54;99838.59;;;14.02
80422;BMP280;69763;50.182;9.144;2023-07-20T02:41:20;99842.00;;;13.95
80422;BMP280;69763;50.182;9.144;2023-07-20T02:43:46;99839.81;;;13.85
80422;BMP280;69763;50.182;9.144;2023-07-20T02:46:11;99843.25;;;13.78
80422;BMP280;69763;50.182;9.144;2023-07-20T02:48:37;99842.66;;;13.72
80422;BMP280;69763;50.182;9.144;2023-07-20T02:51:02;99842.63;;;13.65
80422;BMP280;69763;50.182;9.144;2023-07-20T02:53:27;99844.63;;;13.57
80422;BMP280;69763;50.182;9.144;2023-07-20T02:55:53;99836.63;;;13.51
80422;BMP280;69763;50.182;9.144;2023-07-20T02:58:19;99837.88;;;13.50
80422;BMP280;69763;50.182;9.144;2023-07-20T03:00:45;99838.09;;;13.52
80422;BMP280;69763;50.182;9.144;2023-07-20T03:03:10;99841.53;;;13.60
80422;BMP280;69763;50.182;9.144;2023-07-20T03:05:36;99840.47;;;13.63
80422;BMP280;69763;50.182;9.144;2023-07-20T03:08:01;99840.84;;;13.67
80422;BMP280;69763;50.182;9.144;2023-07-20T03:10:26;99848.47;;;13.69
80422;BMP280;69763;50.182;9.144;2023-07-20T03:12:52;99846.13;;;13.73
80422;BMP280;69763;50.182;9.144;2023-07-20T03:15:19;99837.09;;;13.85
80422;BMP280;69763;50.182;9.144;2023-07-20T03:17:44;99845.09;;;13.99
80422;BMP280;69763;50.182;9.144;2023-07-20T03:20:11;99843.88;;;14.07
80422;BMP280;69763;50.182;9.144;2023-07-20T03:22:36;99842.38;;;14.14
80422;BMP280;69763;50.182;9.144;2023-07-20T03:25:02;99844.78;;;14.17
80422;BMP280;69763;50.182;9.144;2023-07-20T03:27:27;99838.38;;;14.15
80422;BMP280;69763;50.182;9.144;2023-07-20T03:29:52;99840.03;;;14.10
80422;BMP280;69763;50.182;9.144;2023-07-20T03:32:19;99843.47;;;14.03
80422;BMP280;69763;50.182;9.144;2023-07-20T03:34:44;99844.38;;;13.98
80422;BMP280;69763;50.182;9.144;2023-07-20T03:37:10;99853.13;;;13.97
80422;BMP280;69763;50.182;9.144;2023-07-20T03:39:35;99855.63;;;13.95
80422;BMP280;69763;50.182;9.144;2023-07-20T03:42:01;99858.72;;;13.99
80422;BMP280;69763;50.182;9.144;2023-07-20T03:44:26;99857.31;;;14.05
80422;BMP280;69763;50.182;9.144;2023-07-20T03:46:51;99848.19;;;14.10
80422;BMP280;69763;50.182;9.144;2023-07-20T03:49:18;99854.19;;;14.09
80422;BMP280;69763;50.182;9.144;2023-07-20T03:51:43;99850.06;;;14.08
80422;BMP280;69763;50.182;9.144;2023-07-20T03:54:09;99848.41;;;14.05
80422;BMP280;69763;50.182;9.144;2023-07-20T03:56:34;99854.94;;;14.02
80422;BMP280;69763;50.182;9.144;2023-07-20T03:59:00;99860.19;;;14.00
80422;BMP280;69763;50.182;9.144;2023-07-20T04:01:25;99858.56;;;13.97
80422;BMP280;69763;50.182;9.144;2023-07-20T04:03:50;99859.09;;;13.95
80422;BMP280;69763;50.182;9.144;2023-07-20T04:06:17;99869.09;;;14.00
80422;BMP280;69763;50.182;9.144;2023-07-20T04:08:42;99865.84;;;14.02
80422;BMP280;69763;50.182;9.144;2023-07-20T04:11:08;99862.03;;;14.05
80422;BMP280;69763;50.182;9.144;2023-07-20T04:13:33;99863.09;;;14.09
80422;BMP280;69763;50.182;9.144;2023-07-20T04:15:59;99868.75;;;14.11
80422;BMP280;69763;50.182;9.144;2023-07-20T04:18:24;99866.75;;;14.12
80422;BMP280;69763;50.182;9.144;2023-07-20T04:20:50;99867.84;;;14.16
80422;BMP280;69763;50.182;9.144;2023-07-20T04:23:16;99865.31;;;14.18
80422;BMP280;69763;50.182;9.144;2023-07-20T04:25:42;99865.69;;;14.22
80422;BMP280;69763;50.182;9.144;2023-07-20T04:28:07;99864.56;;;14.25
80422;BMP280;69763;50.182;9.144;2023-07-20T04:30:32;99866.75;;;14.27
80422;BMP280;69763;50.182;9.144;2023-07-20T04:32:58;99862.22;;;14.29
80422;BMP280;69763;50.182;9.144;2023-07-20T04:35:44;99871.50;;;14.34
80422;BMP280;69763;50.182;9.144;2023-07-20T04:38:10;99864.25;;;14.44
80422;BMP280;69763;50.182;9.144;2023-07-20T04:40:36;99862.97;;;14.60
80422;BMP280;69763;50.182;9.144;2023-07-20T04:43:02;99865.13;;;14.77
80422;BMP280;69763;50.182;9.144;2023-07-20T04:45:27;99871.47;;;14.95
80422;BMP280;69763;50.182;9.144;2023-07-20T04:47:52;99869.22;;;15.16
80422;BMP280;69763;50.182;9.144;2023-07-20T04:50:18;99868.44;;;15.38
80422;BMP280;69763;50.182;9.144;2023-07-20T04:52:43;99866.72;;;15.58
80422;BMP280;69763;50.182;9.144;2023-07-20T04:55:08;99863.13;;;15.80
80422;BMP280;69763;50.182;9.144;2023-07-20T04:57:35;99865.88;;;16.05
80422;BMP280;69763;50.182;9.144;2023-07-20T05:00:01;99873.19;;;16.27
80422;BMP280;69763;50.182;9.144;2023-07-20T05:02:26;99872.63;;;16.53
80422;BMP280;69763;50.182;9.144;2023-07-20T05:04:51;99867.09;;;16.95
80422;BMP280;69763;50.182;9.144;2023-07-20T05:07:17;99870.75;;;17.25
80422;BMP280;69763;50.182;9.144;2023-07-20T05:09:42;99878.41;;;17.26
80422;BMP280;69763;50.182;9.144;2023-07-20T05:12:08;99869.31;;;17.24
80422;BMP280;69763;50.182;9.144;2023-07-20T05:14:34;99880.44;;;17.26
80422;BMP280;69763;50.182;9.144;2023-07-20T05:17:00;99878.59;;;17.28
80422;BMP280;69763;50.182;9.144;2023-07-20T05:19:26;99883.34;;;17.28
80422;BMP280;69763;50.182;9.144;2023-07-20T05:21:51;99879.06;;;17.34
80422;BMP280;69763;50.182;9.144;2023-07-20T05:24:16;99882.34;;;17.50
80422;BMP280;69763;50.182;9.144;2023-07-20T05:26:42;99882.44;;;17.69
80422;BMP280;69763;50.182;9.144;2023-07-20T05:29:07;99884.91;;;17.75
80422;BMP280;69763;50.182;9.144;2023-07-20T05:31:34;99885.91;;;17.70
80422;BMP280;69763;50.182;9.144;2023-07-20T05:33:59;99886.44;;;17.59
80422;BMP280;69763;50.182;9.144;2023-07-20T05:36:24;99882.00;;;17.63
80422;BMP280;69763;50.182;9.144;2023-07-20T05:38:50;99886.16;;;17.64
80422;BMP280;69763;50.182;9.144;2023-07-20T05:41:15;99877.25;;;17.64
80422;BMP280;69763;50.182;9.144;2023-07-20T05:43:40;99880.38;;;17.60
80422;BMP280;69763;50.182;9.144;2023-07-20T05:46:06;99880.53;;;17.62
80422;BMP280;69763;50.182;9.144;2023-07-20T05:48:33;99881.28;;;17.63
80422;BMP280;69763;50.182;9.144;2023-07-20T05:50:58;99878.84;;;17.67
80422;BMP280;69763;50.182;9.144;2023-07-20T05:53:23;99883.81;;;17.87
80422;BMP280;69763;50.182;9.144;2023-07-20T05:55:52;99886.56;;;18.24
80422;BMP280;69763;50.182;9.144;2023-07-20T05:58:17;99885.50;;;18.65
80422;BMP280;69763;50.182;9.144;2023-07-20T06:00:43;99891.56;;;18.92
80422;BMP280;69763;50.182;9.144;2023-07-20T06:03:08;99895.00;;;19.12
80422;BMP280;69763;50.182;9.144;2023-07-20T06:05:35;99893.38;;;19.38
80422;BMP280;69763;50.182;9.144;2023-07-20T06:08:00;99895.50;;;19.59
80422;BMP280;69763;50.182;9.144;2023-07-20T06:10:25;99897.47;;;19.77
80422;BMP280;69763;50.182;9.144;2023-07-20T06:12:51;99895.34;;;19.97
80422;BMP280;69763;50.182;9.144;2023-07-20T06:15:26;99902.31;;;20.29
80422;BMP280;69763;50.182;9.144;2023-07-20T06:17:51;99900.13;;;20.70
80422;BMP280;69763;50.182;9.144;2023-07-20T06:20:17;99891.63;;;21.10
80422;BMP280;69763;50.182;9.144;2023-07-20T06:22:44;99901.50;;;21.25
80422;BMP280;69763;50.182;9.144;2023-07-20T06:25:10;99905.69;;;21.26
80422;BMP280;69763;50.182;9.144;2023-07-20T06:27:35;99904.88;;;21.02
80422;BMP280;69763;50.182;9.144;2023-07-20T06:30:01;99903.59;;;20.70
80422;BMP280;69763;50.182;9.144;2023-07-20T06:32:26;99901.88;;;20.65
80422;BMP280;69763;50.182;9.144;2023-07-20T06:34:51;99904.69;;;20.77
80422;BMP280;69763;50.182;9.144;2023-07-20T06:37:17;99897.50;;;20.83
80422;BMP280;69763;50.182;9.144;2023-07-20T06:39:43;99903.75;;;20.84
80422;BMP280;69763;50.182;9.144;2023-07-20T06:42:09;99905.81;;;20.95
80422;BMP280;69763;50.182;9.144;2023-07-20T06:44:34;99906.94;;;21.02
80422;BMP280;69763;50.182;9.144;2023-07-20T06:46:59;99903.59;;;21.03
80422;BMP280;69763;50.182;9.144;2023-07-20T06:49:25;99901.97;;;21.21
80422;BMP280;69763;50.182;9.144;2023-07-20T06:51:50;99906.06;;;21.44
80422;BMP280;69763;50.182;9.144;2023-07-20T06:54:16;99909.38;;;21.75
80422;BMP280;69763;50.182;9.144;2023-07-20T06:56:42;99907.91;;;22.82
80422;BMP280;69763;50.182;9.144;2023-07-20T06:59:08;99902.63;;;23.39
80422;BMP280;69763;50.182;9.144;2023-07-20T07:01:33;99906.09;;;23.39
80422;BMP280;69763;50.182;9.144;2023-07-20T07:03:58;99915.44;;;23.60
80422;BMP280;69763;50.182;9.144;2023-07-20T07:06:24;99915.53;;;24.02
80422;BMP280;69763;50.182;9.144;2023-07-20T07:08:49;99907.66;;;23.83
80422;BMP280;69763;50.182;9.144;2023-07-20T07:11:14;99917.25;;;23.28
80422;BMP280;69763;50.182;9.144;2023-07-20T07:13:41;99920.88;;;22.43
80422;BMP280;69763;50.182;9.144;2023-07-20T07:16:07;99924.81;;;21.68
80422;BMP280;69763;50.182;9.144;2023-07-20T07:18:32;99925.50;;;21.01
80422;BMP280;69763;50.182;9.144;2023-07-20T07:20:58;99932.38;;;20.58
80422;BMP280;69763;50.182;9.144;2023-07-20T07:23:23;99929.53;;;20.46
80422;BMP280;69763;50.182;9.144;2023-07-20T07:25:48;99925.63;;;20.70
80422;BMP280;69763;50.182;9.144;2023-07-20T07:28:14;99925.59;;;21.24
80422;BMP280;69763;50.182;9.144;2023-07-20T07:30:41;99918.91;;;22.09
80422;BMP280;69763;50.182;9.144;2023-07-20T07:33:06;99917.66;;;25.37
80422;BMP280;69763;50.182;9.144;2023-07-20T07:35:32;99920.22;;;25.48
80422;BMP280;69763;50.182;9.144;2023-07-20T07:37:57;99921.75;;;26.18
80422;BMP280;69763;50.182;9.144;2023-07-20T07:40:22;99923.28;;;26.94
80422;BMP280;69763;50.182;9.144;2023-07-20T07:42:48;99919.53;;;30.11
80422;BMP280;69763;50.182;9.144;2023-07-20T07:45:13;99919.47;;;32.47
80422;BMP280;69763;50.182;9.144;2023-07-20T07:47:40;99914.38;;;32.98
80422;BMP280;69763;50.182;9.144;2023-07-20T07:50:06;99911.66;;;32.42
80422;BMP280;69763;50.182;9.144;2023-07-20T07:52:32;99913.41;;;33.43
80422;BMP280;69763;50.182;9.144;2023-07-20T07:54:57;99909.00;;;32.52
80422;BMP280;69763;50.182;9.144;2023-07-20T07:57:22;99907.84;;;32.15
80422;BMP280;69763;50.182;9.144;2023-07-20T07:59:48;99912.97;;;30.99
80422;BMP280;69763;50.182;9.144;2023-07-20T08:02:13;99913.09;;;29.47
80422;BMP280;69763;50.182;9.144;2023-07-20T08:04:40;99918.09;;;27.84
80422;BMP280;69763;50.182;9.144;2023-07-20T08:07:05;99918.34;;;26.37
80422;BMP280;69763;50.182;9.144;2023-07-20T08:09:30;99925.88;;;25.19
80422;BMP280;69763;50.182;9.144;2023-07-20T08:11:56;99922.59;;;24.19
80422;BMP280;69763;50.182;9.144;2023-07-20T08:14:21;99921.16;;;23.36
80422;BMP280;69763;50.182;9.144;2023-07-20T08:16:46;99916.03;;;22.67
80422;BMP280;69763;50.182;9.144;2023-07-20T08:19:14;99920.59;;;22.14
80422;BMP280;69763;50.182;9.144;2023-07-20T08:21:41;99928.03;;;21.65
80422;BMP280;69763;50.182;9.144;2023-07-20T08:24:07;99923.69;;;21.27
80422;BMP280;69763;50.182;9.144;2023-07-20T08:26:32;99929.56;;;21.00
80422;BMP280;69763;50.182;9.144;2023-07-20T08:28:57;99931.25;;;20.72
80422;BMP280;69763;50.182;9.144;2023-07-20T08:31:23;99931.78;;;20.59
80422;BMP280;69763;50.182;9.144;2023-07-20T08:33:48;99935.81;;;20.68
80422;BMP280;69763;50.182;9.144;2023-07-20T08:36:14;99935.28;;;20.93
80422;BMP280;69763;50.182;9.144;2023-07-20T08:38:40;99938.66;;;21.24
80422;BMP280;69763;50.182;9.144;2023-07-20T08:41:06;99933.22;;;21.82
80422;BMP280;69763;50.182;9.144;2023-07-20T08:43:33;99926.63;;;23.62
80422;BMP280;69763;50.182;9.144;2023-07-20T08:45:58;99928.09;;;26.73
80422;BMP280;69763;50.182;9.144;2023-07-20T08:48:24;99925.06;;;29.51
80422;BMP280;69763;50.182;9.144;2023-07-20T08:50:51;99925.22;;;30.82
80422;BMP280;69763;50.182;9.144;2023-07-20T08:53:17;99920.38;;;31.62
80422;BMP280;69763;50.182;9.144;2023-07-20T08:55:45;99924.06;;;31.75
80422;BMP280;69763;50.182;9.144;2023-07-20T08:58:12;99924.47;;;31.55
80422;BMP280;69763;50.182;9.144;2023-07-20T09:00:38;99918.63;;;32.37
80422;BMP280;69763;50.182;9.144;2023-07-20T09:03:03;99923.13;;;33.32
80422;BMP280;69763;50.182;9.144;2023-07-20T09:05:28;99925.81;;;34.16
80422;BMP280;69763;50.182;9.144;2023-07-20T09:07:54;99922.75;;;33.70
80422;BMP280;69763;50.182;9.144;2023-07-20T09:10:20;99917.75;;;32.24
80422;BMP280;69763;50.182;9.144;2023-07-20T09:12:47;99922.25;;;31.50
80422;BMP280;69763;50.182;9.144;2023-07-20T09:15:13;99923.97;;;31.27
80422;BMP280;69763;50.182;9.144;2023-07-20T09:17:38;99916.00;;;31.11
80422;BMP280;69763;50.182;9.144;2023-07-20T09:20:05;99929.66;;;30.93
80422;BMP280;69763;50.182;9.144;2023-07-20T09:22:31;99927.22;;;29.53
80422;BMP280;69763;50.182;9.144;2023-07-20T09:24:57;99923.03;;;28.08
80422;BMP280;69763;50.182;9.144;2023-07-20T09:27:34;99929.19;;;26.84
80422;BMP280;69763;50.182;9.144;2023-07-20T09:30:01;99931.72;;;25.90
80422;BMP280;69763;50.182;9.144;2023-07-20T09:32:26;99936.38;;;25.36
80422;BMP280;69763;50.182;9.144;2023-07-20T09:34:51;99938.59;;;25.24
80422;BMP280;69763;50.182;9.144;2023-07-20T09:37:20;99933.66;;;26.20
80422;BMP280;69763;50.182;9.144;2023-07-20T09:39:46;99934.69;;;28.24
80422;BMP280;69763;50.182;9.144;2023-07-20T09:42:11;99925.53;;;30.31
80422;BMP280;69763;50.182;9.144;2023-07-20T09:44:37;99917.72;;;31.31
80422;BMP280;69763;50.182;9.144;2023-07-20T09:47:05;99924.47;;;31.17
80422;BMP280;69763;50.182;9.144;2023-07-20T09:49:30;99921.66;;;30.44
80422;BMP280;69763;50.182;9.144;2023-07-20T09:51:56;99922.56;;;29.36
80422;BMP280;69763;50.182;9.144;2023-07-20T09:54:22;99924.09;;;28.20
80422;BMP280;69763;50.182;9.144;2023-07-20T09:56:48;99917.81;;;27.35
80422;BMP280;69763;50.182;9.144;2023-07-20T09:59:13;99918.56;;;26.61
80422;BMP280;69763;50.182;9.144;2023-07-20T10:01:39;99922.34;;;25.99
80422;BMP280;69763;50.182;9.144;2023-07-20T10:04:08;99927.53;;;25.73
80422;BMP280;69763;50.182;9.144;2023-07-20T10:06:34;99919.06;;;26.20
80422;BMP280;69763;50.182;9.144;2023-07-20T10:09:02;99919.44;;;27.03
80422;BMP280;69763;50.182;9.144;2023-07-20T10:11:30;99919.75;;;27.50
80422;BMP280;69763;50.182;9.144;2023-07-20T10:13:59;99911.53;;;27.54
80422;BMP280;69763;50.182;9.144;2023-07-20T10:16:28;99900.19;;;27.48
80422;BMP280;69763;50.182;9.144;2023-07-20T10:19:01;99903.69;;;27.09
80422;BMP280;69763;50.182;9.144;2023-07-20T10:21:29;99905.63;;;26.67
80422;BMP280;69763;50.182;9.144;2023-07-20T10:23:56;99899.09;;;26.61
80422;BMP280;69763;50.182;9.144;2023-07-20T10:26:22;99899.34;;;26.67
80422;BMP280;69763;50.182;9.144;2023-07-20T10:28:47;99897.81;;;26.81
80422;BMP280;69763;50.182;9.144;2023-07-20T10:31:13;99901.75;;;26.94
80422;BMP280;69763;50.182;9.144;2023-07-20T10:33:39;99892.47;;;26.88
80422;BMP280;69763;50.182;9.144;2023-07-20T10:36:05;99893.72;;;27.22
80422;BMP280;69763;50.182;9.144;2023-07-20T10:38:41;99888.13;;;27.63
80422;BMP280;69763;50.182;9.144;2023-07-20T10:41:17;99882.97;;;28.19
80422;BMP280;69763;50.182;9.144;2023-07-20T10:43:43;99879.16;;;28.53
80422;BMP280;69763;50.182;9.144;2023-07-20T10:46:11;99879.84;;;29.03
80422;BMP280;69763;50.182;9.144;2023-07-20T10:49:00;99880.59;;;29.59
80422;BMP280;69763;50.182;9.144;2023-07-20T10:51:25;99869.44;;;29.91
80422;BMP280;69763;50.182;9.144;2023-07-20T10:53:52;99857.97;;;30.07
80422;BMP280;69763;50.182;9.144;2023-07-20T10:56:22;99858.03;;;30.11
80422;BMP280;69763;50.182;9.144;2023-07-20T10:58:48;99862.41;;;29.88
80422;BMP280;69763;50.182;9.144;2023-07-20T11:01:13;99857.44;;;29.84
80422;BMP280;69763;50.182;9.144;2023-07-20T11:03:39;99857.22;;;29.74
80422;BMP280;69763;50.182;9.144;2023-07-20T11:09:03;99859.69;;;29.62
80422;BMP280;69763;50.182;9.144;2023-07-20T11:11:30;99860.22;;;29.84
80422;BMP280;69763;50.182;9.144;2023-07-20T11:13:57;99853.75;;;29.76
80422;BMP280;69763;50.182;9.144;2023-07-20T11:16:36;99848.56;;;29.64
80422;BMP280;69763;50.182;9.144;2023-07-20T11:19:02;99851.50;;;29.70
80422;BMP280;69763;50.182;9.144;2023-07-20T11:21:27;99858.75;;;29.24
80422;BMP280;69763;50.182;9.144;2023-07-20T11:23:53;99855.09;;;28.19
80422;BMP280;69763;50.182;9.144;2023-07-20T11:26:20;99854.19;;;27.88
80422;BMP280;69763;50.182;9.144;2023-07-20T11:28:48;99861.19;;;28.13
80422;BMP280;69763;50.182;9.144;2023-07-20T11:31:14;99850.09;;;28.62
80422;BMP280;69763;50.182;9.144;2023-07-20T11:33:39;99851.53;;;28.87
80422;BMP280;69763;50.182;9.144;2023-07-20T11:36:05;99843.22;;;28.65
80422;BMP280;69763;50.182;9.144;2023-07-20T11:38:31;99854.00;;;28.06
80422;BMP280;69763;50.182;9.144;2023-07-20T11:40:57;99843.47;;;28.26
80422;BMP280;69763;50.182;9.144;2023-07-20T11:43:23;99848.69;;;28.14
80422;BMP280;69763;50.182;9.144;2023-07-20T11:45:49;99854.72;;;28.06
80422;BMP280;69763;50.182;9.144;2023-07-20T11:48:14;99842.38;;;27.90
80422;BMP280;69763;50.182;9.144;2023-07-20T11:50:40;99849.09;;;27.61
80422;BMP280;69763;50.182;9.144;2023-07-20T11:53:05;99839.25;;;27.36
80422;BMP280;69763;50.182;9.144;2023-07-20T11:55:31;99844.66;;;27.52
80422;BMP280;69763;50.182;9.144;2023-07-20T11:58:03;99832.28;;;27.79
80422;BMP280;69763;50.182;9.144;2023-07-20T12:00:30;99834.13;;;27.29
80422;BMP280;69763;50.182;9.144;2023-07-20T12:02:56;99834.34;;;26.76
80422;BMP280;69763;50.182;9.144;2023-07-20T12:05:22;99831.75;;;26.62
80422;BMP280;69763;50.182;9.144;2023-07-20T12:07:49;99840.88;;;26.65
80422;BMP280;69763;50.182;9.144;2023-07-20T12:10:15;99831.91;;;26.66
80422;BMP280;69763;50.182;9.144;2023-07-20T12:12:41;99834.00;;;26.85
80422;BMP280;69763;50.182;9.144;2023-07-20T12:15:15;99827.28;;;27.12
80422;BMP280;69763;50.182;9.144;2023-07-20T12:17:43;99828.41;;;27.05
80422;BMP280;69763;50.182;9.144;2023-07-20T12:20:09;99833.22;;;26.83
80422;BMP280;69763;50.182;9.144;2023-07-20T12:22:38;99831.66;;;26.60
80422;BMP280;69763;50.182;9.144;2023-07-20T12:25:05;99828.91;;;26.23
80422;BMP280;69763;50.182;9.144;2023-07-20T12:27:31;99819.38;;;25.93
80422;BMP280;69763;50.182;9.144;2023-07-20T12:29:56;99818.56;;;25.73
80422;BMP280;69763;50.182;9.144;2023-07-20T12:32:21;99824.53;;;25.83
80422;BMP280;69763;50.182;9.144;2023-07-20T12:34:48;99816.03;;;25.96
80422;BMP280;69763;50.182;9.144;2023-07-20T12:37:13;99818.25;;;26.35
80422;BMP280;69763;50.182;9.144;2023-07-20T12:39:39;99824.16;;;26.82
80422;BMP280;69763;50.182;9.144;2023-07-20T12:42:05;99816.09;;;27.10
80422;BMP280;69763;50.182;9.144;2023-07-20T12:44:30;99820.25;;;27.31
80422;BMP280;69763;50.182;9.144;2023-07-20T12:46:56;99818.09;;;27.49
80422;BMP280;69763;50.182;9.144;2023-07-20T12:49:21;99807.34;;;27.61
80422;BMP280;69763;50.182;9.144;2023-07-20T12:51:48;99798.63;;;27.71
80422;BMP280;69763;50.182;9.144;2023-07-20T12:54:13;99814.28;;;27.82
80422;BMP280;69763;50.182;9.144;2023-07-20T12:56:39;99811.88;;;27.72
80422;BMP280;69763;50.182;9.144;2023-07-20T12:59:04;99814.22;;;27.80
80422;BMP280;69763;50.182;9.144;2023-07-20T13:01:29;99805.72;;;27.76
80422;BMP280;69763;50.182;9.144;2023-07-20T13:03:55;99805.59;;;27.72
80422;BMP280;69763;50.182;9.144;2023-07-20T13:06:20;99802.38;;;27.79
80422;BMP280;69763;50.182;9.144;2023-07-20T13:08:47;99798.47;;;27.88
80422;BMP280;69763;50.182;9.144;2023-07-20T13:11:12;99797.19;;;27.91
80422;BMP280;69763;50.182;9.144;2023-07-20T13:13:37;99796.56;;;27.95
80422;BMP280;69763;50.182;9.144;2023-07-20T13:16:03;99795.81;;;28.16
80422;BMP280;69763;50.182;9.144;2023-07-20T13:18:28;99788.78;;;28.37
80422;BMP280;69763;50.182;9.144;2023-07-20T13:20:53;99789.75;;;28.47
80422;BMP280;69763;50.182;9.144;2023-07-20T13:23:18;99788.50;;;28.78
80422;BMP280;69763;50.182;9.144;2023-07-20T13:25:45;99778.66;;;28.75
80422;BMP280;69763;50.182;9.144;2023-07-20T13:28:11;99780.47;;;28.39
80422;BMP280;69763;50.182;9.144;2023-07-20T13:30:36;99777.97;;;28.25
80422;BMP280;69763;50.182;9.144;2023-07-20T13:33:01;99775.84;;;28.00
80422;BMP280;69763;50.182;9.144;2023-07-20T13:35:26;99777.91;;;28.23
80422;BMP280;69763;50.182;9.144;2023-07-20T13:37:52;99773.03;;;28.47
80422;BMP280;69763;50.182;9.144;2023-07-20T13:40:17;99761.13;;;28.45
80422;BMP280;69763;50.182;9.144;2023-07-20T13:42:43;99773.09;;;28.26
80422;BMP280;69763;50.182;9.144;2023-07-20T13:45:09;99766.00;;;27.97
80422;BMP280;69763;50.182;9.144;2023-07-20T13:47:34;99764.59;;;27.74
80422;BMP280;69763;50.182;9.144;2023-07-20T13:50:00;99756.19;;;27.72
80422;BMP280;69763;50.182;9.144;2023-07-20T13:52:25;99759.25;;;27.59
80422;BMP280;69763;50.182;9.144;2023-07-20T13:54:50;99759.50;;;27.67
80422;BMP280;69763;50.182;9.144;2023-07-20T13:57:16;99756.69;;;28.36
80422;BMP280;69763;50.182;9.144;2023-07-20T13:59:44;99746.38;;;28.94
80422;BMP280;69763;50.182;9.144;2023-07-20T14:02:09;99743.78;;;29.02
80422;BMP280;69763;50.182;9.144;2023-07-20T14:04:34;99730.00;;;29.10
80422;BMP280;69763;50.182;9.144;2023-07-20T14:07:00;99731.56;;;29.45
80422;BMP280;69763;50.182;9.144;2023-07-20T14:09:25;99730.63;;;29.66